Time;durP1;ratioP1;P1;durP2;ratioP2;P2;SDS_P1;SDS_P2;PMS_P1;PMS_P2;Temp;Humidity;BMP_temperature;BMP_pressure;BME280_temperature;BME280_humidity;BME280_pressure;Samples;Min_cycle;Max_cycle;Signal;HPM_P1;HPM_P2
2021/10/19 00:00:35;;;;;;;4.57;4.18;;;10.40;99.90;;;;;;5067229;28;20221;-80
2021/10/19 00:03:02;;;;;;;5.50;5.00;;;10.40;99.90;;;;;;5068484;28;20222;-76
2021/10/19 00:05:29;;;;;;;5.20;4.70;;;10.40;99.90;;;;;;5061569;28;20294;-76
2021/10/19 00:07:56;;;;;;;4.95;4.55;;;10.40;99.90;;;;;;5063364;28;20273;-78
2021/10/19 00:10:23;;;;;;;5.28;4.78;;;10.40;99.90;;;;;;5066839;28;20231;-79
2021/10/19 00:12:52;;;;;;;5.13;4.72;;;10.30;99.90;;;;;;5068561;28;20716;-79
2021/10/19 00:15:19;;;;;;;5.07;4.68;;;10.30;99.90;;;;;;5072850;28;20754;-78
2021/10/19 00:17:47;;;;;;;5.53;5.07;;;10.30;99.90;;;;;;5069957;28;20280;-78
2021/10/19 00:20:16;;;;;;;4.90;4.50;;;10.20;99.90;;;;;;5067185;28;20231;-78
2021/10/19 00:22:44;;;;;;;4.75;4.35;;;10.20;99.90;;;;;;5068157;28;20243;-78
2021/10/19 00:25:15;;;;;;;4.82;4.43;;;10.20;99.90;;;;;;5072392;28;20222;-78
2021/10/19 00:27:42;;;;;;;5.50;4.97;;;10.20;99.90;;;;;;5070354;28;20228;-79
2021/10/19 00:30:12;;;;;;;5.13;4.63;;;10.10;99.90;;;;;;5064679;28;20299;-81
2021/10/19 00:32:40;;;;;;;4.80;4.40;;;10.10;99.90;;;;;;5067203;28;20281;-78
2021/10/19 00:35:08;;;;;;;4.47;4.10;;;10.10;99.90;;;;;;5069822;28;20222;-76
2021/10/19 00:37:35;;;;;;;4.72;4.32;;;10.20;99.90;;;;;;5063847;28;20230;-77
2021/10/19 00:40:03;;;;;;;5.45;4.95;;;10.20;99.90;;;;;;5067329;28;20222;-77
2021/10/19 00:42:32;;;;;;;4.80;4.30;;;10.10;99.90;;;;;;5067090;28;20308;-76
2021/10/19 00:44:59;;;;;;;5.82;4.68;;;10.10;99.90;;;;;;5067813;28;20685;-77
2021/10/19 00:47:27;;;;;;;4.82;4.43;;;10.20;99.90;;;;;;5063175;28;20275;-76
2021/10/19 00:49:54;;;;;;;5.30;4.80;;;10.20;99.90;;;;;;5066534;28;20635;-77
2021/10/19 00:52:21;;;;;;;4.70;4.28;;;10.20;99.90;;;;;;5097923;22;20225;-77
2021/10/19 00:54:49;;;;;;;4.93;4.43;;;10.10;99.90;;;;;;5096191;28;20213;-79
2021/10/19 00:57:16;;;;;;;4.78;4.38;;;10.10;99.90;;;;;;5098352;28;20221;-79
2021/10/19 00:59:45;;;;;;;5.05;4.60;;;10.10;99.90;;;;;;5096538;27;20261;-79
2021/10/19 01:02:14;;;;;;;4.93;4.43;;;10.00;99.90;;;;;;5099684;28;20228;-79
2021/10/19 01:04:43;;;;;;;5.47;4.97;;;10.00;99.90;;;;;;5109606;28;20217;-79
2021/10/19 01:07:12;;;;;;;5.45;4.95;;;10.00;99.90;;;;;;5109975;28;20647;-80
2021/10/19 01:09:40;;;;;;;5.05;4.63;;;10.00;99.90;;;;;;5108524;28;20224;-79
2021/10/19 01:12:09;;;;;;;5.93;5.43;;;10.00;99.90;;;;;;5109120;28;20345;-79
2021/10/19 01:14:37;;;;;;;5.55;5.05;;;10.00;99.90;;;;;;5106058;28;20288;-79
2021/10/19 01:17:04;;;;;;;5.38;4.95;;;10.00;99.90;;;;;;5107504;28;20216;-79
2021/10/19 01:19:31;;;;;;;4.38;4.03;;;9.90;99.90;;;;;;5108507;28;20220;-78
2021/10/19 01:22:02;;;;;;;4.63;4.22;;;9.90;99.90;;;;;;5093617;27;20224;-79
2021/10/19 01:24:29;;;;;;;4.53;4.05;;;9.90;99.90;;;;;;5110020;28;20212;-79
2021/10/19 01:26:56;;;;;;;4.22;3.92;;;9.80;99.90;;;;;;5105691;28;20216;-79
2021/10/19 01:29:24;;;;;;;4.25;3.95;;;9.80;99.90;;;;;;5106204;27;20231;-79
2021/10/19 01:31:54;;;;;;;4.53;4.13;;;9.80;99.90;;;;;;5108066;28;20225;-79
2021/10/19 01:34:22;;;;;;;3.95;3.65;;;9.80;99.90;;;;;;5108536;28;20217;-78
2021/10/19 01:36:50;;;;;;;5.00;4.60;;;9.80;99.90;;;;;;5108386;28;20281;-79
2021/10/19 01:39:18;;;;;;;4.45;4.05;;;9.80;99.90;;;;;;5109140;28;20216;-80
2021/10/19 01:41:46;;;;;;;4.07;3.78;;;9.70;99.90;;;;;;5102066;28;20217;-79
2021/10/19 01:44:14;;;;;;;4.93;4.53;;;9.70;99.90;;;;;;5106737;27;20308;-79
2021/10/19 01:46:41;;;;;;;4.57;3.97;;;9.70;99.90;;;;;;5106516;28;20304;-78
2021/10/19 01:49:08;;;;;;;4.47;4.07;;;9.60;99.90;;;;;;5108639;27;20228;-79
2021/10/19 01:51:35;;;;;;;5.38;4.68;;;9.60;99.90;;;;;;5104252;28;20212;-79
2021/10/19 01:54:02;;;;;;;4.38;4.03;;;9.60;99.90;;;;;;5109146;28;20220;-78
2021/10/19 01:56:31;;;;;;;4.22;3.83;;;9.60;99.90;;;;;;5106127;28;20221;-79
2021/10/19 01:58:58;;;;;;;4.32;3.92;;;9.60;99.90;;;;;;5106063;28;20270;-78
2021/10/19 02:01:25;;;;;;;4.22;3.83;;;9.60;99.90;;;;;;5109834;28;20356;-78
2021/10/19 02:03:52;;;;;;;4.43;4.13;;;9.50;99.90;;;;;;5104037;28;20236;-79
2021/10/19 02:06:19;;;;;;;4.05;3.75;;;9.50;99.90;;;;;;5105651;28;20263;-76
2021/10/19 02:08:46;;;;;;;4.10;3.70;;;9.50;99.90;;;;;;5102514;28;20216;-79
2021/10/19 02:11:13;;;;;;;4.65;4.25;;;9.50;99.90;;;;;;5106325;28;20224;-79
2021/10/19 02:13:41;;;;;;;4.47;4.13;;;9.60;99.90;;;;;;5105730;28;20225;-79
2021/10/19 02:16:08;;;;;;;4.35;4.05;;;9.60;99.90;;;;;;5106142;28;20228;-78
2021/10/19 02:18:35;;;;;;;4.10;3.80;;;9.60;99.90;;;;;;5108118;28;20220;-78
2021/10/19 02:21:02;;;;;;;4.15;3.85;;;9.60;99.90;;;;;;5106388;28;20653;-79
2021/10/19 02:23:29;;;;;;;3.92;3.63;;;9.60;99.90;;;;;;5108107;28;20286;-79
2021/10/19 02:25:56;;;;;;;4.40;4.00;;;9.60;99.90;;;;;;5104593;28;20220;-78
2021/10/19 02:28:23;;;;;;;4.95;3.97;;;9.60;99.90;;;;;;5104768;28;20239;-79
2021/10/19 02:30:52;;;;;;;4.65;4.25;;;9.60;99.90;;;;;;5101392;28;20224;-78
2021/10/19 02:33:19;;;;;;;5.28;4.78;;;9.50;99.90;;;;;;5106546;28;20221;-77
2021/10/19 02:35:46;;;;;;;4.68;4.28;;;9.60;99.90;;;;;;5103979;28;20219;-79
2021/10/19 02:38:13;;;;;;;4.15;3.85;;;9.50;99.90;;;;;;5108666;28;20216;-79
2021/10/19 02:40:40;;;;;;;4.22;3.90;;;9.50;99.90;;;;;;5105133;28;20224;-80
2021/10/19 02:43:07;;;;;;;4.63;4.22;;;9.50;99.90;;;;;;5106383;28;20221;-77
2021/10/19 02:45:34;;;;;;;4.30;3.95;;;9.50;99.90;;;;;;5106013;28;20814;-79
2021/10/19 02:48:03;;;;;;;3.88;3.58;;;9.50;99.90;;;;;;5108756;28;20261;-77
2021/10/19 02:50:30;;;;;;;4.10;3.80;;;9.50;99.90;;;;;;5108153;28;20289;-77
2021/10/19 02:52:57;;;;;;;4.70;4.30;;;9.50;99.90;;;;;;5105996;28;20232;-77
2021/10/19 02:55:24;;;;;;;4.55;4.15;;;9.40;99.90;;;;;;5104321;28;20221;-79
2021/10/19 02:57:51;;;;;;;4.13;3.83;;;9.40;99.90;;;;;;5112319;27;20569;-77
2021/10/19 03:00:18;;;;;;;4.80;4.30;;;9.40;99.90;;;;;;5111459;27;20221;-78
2021/10/19 03:02:45;;;;;;;4.38;4.07;;;9.30;99.90;;;;;;5112358;27;20220;-78
2021/10/19 03:05:15;;;;;;;4.15;3.85;;;9.30;99.90;;;;;;5111083;27;20225;-80
2021/10/19 03:07:42;;;;;;;4.10;3.70;;;9.30;99.90;;;;;;5112501;28;20326;-77
2021/10/19 03:10:10;;;;;;;4.80;4.40;;;9.30;99.90;;;;;;5108583;28;20221;-77
2021/10/19 03:12:37;;;;;;;4.00;3.70;;;9.30;99.90;;;;;;5107654;28;20710;-78
2021/10/19 03:15:04;;;;;;;4.30;4.00;;;9.30;99.90;;;;;;5108427;27;20467;-78
2021/10/19 03:17:31;;;;;;;3.85;3.55;;;9.30;99.90;;;;;;5112538;27;20221;-77
2021/10/19 03:19:58;;;;;;;4.20;3.88;;;9.20;99.90;;;;;;5096763;27;20286;-78
2021/10/19 03:22:27;;;;;;;4.10;3.70;;;9.20;99.90;;;;;;5111160;28;20853;-76
2021/10/19 03:24:54;;;;;;;4.40;4.10;;;9.20;99.90;;;;;;5109719;28;20228;-77
2021/10/19 03:27:21;;;;;;;4.50;4.10;;;9.10;99.90;;;;;;5105925;28;20213;-79
2021/10/19 03:29:48;;;;;;;3.72;3.42;;;9.10;99.90;;;;;;5113714;27;20303;-79
2021/10/19 03:32:15;;;;;;;4.18;3.78;;;9.00;99.90;;;;;;5110430;27;20225;-79
2021/10/19 03:34:42;;;;;;;3.88;3.58;;;9.00;99.90;;;;;;5106876;27;20213;-77
2021/10/19 03:37:09;;;;;;;4.75;4.13;;;9.00;99.90;;;;;;5105394;28;20368;-79
2021/10/19 03:39:37;;;;;;;4.65;4.28;;;9.00;99.90;;;;;;5112350;27;20260;-79
2021/10/19 03:42:05;;;;;;;4.38;3.88;;;9.00;99.90;;;;;;5106243;28;20228;-78
2021/10/19 03:44:32;;;;;;;4.97;4.57;;;9.00;99.90;;;;;;5114518;28;20244;-79
2021/10/19 03:46:59;;;;;;;4.45;4.15;;;9.10;99.90;;;;;;5111529;28;20232;-79
2021/10/19 03:49:26;;;;;;;4.25;3.95;;;9.10;99.90;;;;;;5109768;28;20224;-79
2021/10/19 03:51:53;;;;;;;4.60;4.20;;;9.00;99.90;;;;;;5105993;27;20232;-77
2021/10/19 03:54:20;;;;;;;4.28;3.95;;;9.10;99.90;;;;;;5108413;28;20651;-78
2021/10/19 03:56:48;;;;;;;4.53;4.13;;;9.00;99.90;;;;;;5110059;28;20280;-79
2021/10/19 03:59:16;;;;;;;3.75;3.45;;;9.00;99.90;;;;;;5110850;27;20220;-79
2021/10/19 04:01:43;;;;;;;4.15;3.85;;;9.00;99.90;;;;;;5110174;28;20414;-79
2021/10/19 04:04:10;;;;;;;3.95;3.65;;;9.00;99.90;;;;;;5108978;28;20213;-77
2021/10/19 04:06:37;;;;;;;3.55;3.30;;;9.00;99.90;;;;;;5106242;27;20221;-77
2021/10/19 04:09:05;;;;;;;4.10;3.75;;;9.00;99.90;;;;;;5107691;27;20225;-78
2021/10/19 04:11:32;;;;;;;4.63;4.25;;;9.00;99.90;;;;;;5110353;28;20217;-78
2021/10/19 04:14:01;;;;;;;3.85;3.55;;;9.00;99.90;;;;;;5112809;27;20220;-79
2021/10/19 04:16:28;;;;;;;3.88;3.58;;;9.10;99.90;;;;;;5107520;27;20224;-78
2021/10/19 04:18:55;;;;;;;4.70;4.32;;;9.00;99.90;;;;;;5108187;28;20229;-77
2021/10/19 04:21:22;;;;;;;4.10;3.80;;;8.90;99.90;;;;;;5107470;27;20224;-78
2021/10/19 04:23:49;;;;;;;4.63;4.22;;;8.90;99.90;;;;;;5103534;27;20254;-79
2021/10/19 04:26:16;;;;;;;3.72;3.42;;;8.90;99.90;;;;;;5107010;28;20212;-79
2021/10/19 04:28:44;;;;;;;4.28;3.97;;;8.80;99.90;;;;;;5106664;27;20292;-79
2021/10/19 04:31:13;;;;;;;4.15;3.85;;;8.90;99.90;;;;;;5108706;27;20221;-79
2021/10/19 04:33:40;;;;;;;3.70;3.40;;;8.80;99.90;;;;;;5109858;28;20224;-79
2021/10/19 04:36:07;;;;;;;3.80;3.50;;;8.80;99.90;;;;;;5106147;28;20246;-79
2021/10/19 04:38:35;;;;;;;4.15;3.85;;;8.80;99.90;;;;;;5106229;28;20273;-79
2021/10/19 04:41:04;;;;;;;3.85;3.55;;;8.80;99.90;;;;;;5106101;28;20216;-79
2021/10/19 04:43:31;;;;;;;4.10;3.80;;;8.80;99.90;;;;;;5110841;28;20273;-79
2021/10/19 04:45:58;;;;;;;3.95;3.65;;;8.80;99.90;;;;;;5109940;28;20224;-79
2021/10/19 04:48:27;;;;;;;3.67;3.38;;;8.80;99.90;;;;;;5111362;27;20225;-79
2021/10/19 04:50:54;;;;;;;4.30;4.00;;;8.80;99.90;;;;;;5108391;27;20594;-79
2021/10/19 04:53:21;;;;;;;3.90;3.60;;;8.80;99.90;;;;;;5105701;28;20220;-79
2021/10/19 04:55:48;;;;;;;4.20;3.80;;;8.90;99.90;;;;;;5107705;28;20221;-78
2021/10/19 04:58:15;;;;;;;4.18;3.85;;;8.80;99.90;;;;;;5106193;28;20654;-78
2021/10/19 05:00:43;;;;;;;4.20;3.90;;;8.80;99.90;;;;;;5099776;28;20225;-78
2021/10/19 05:03:10;;;;;;;4.50;4.10;;;8.80;99.90;;;;;;5107578;27;20221;-79
2021/10/19 05:05:41;;;;;;;4.15;3.78;;;8.80;99.90;;;;;;5103083;28;20827;-80
2021/10/19 05:08:08;;;;;;;4.10;3.80;;;8.90;99.90;;;;;;5105662;28;20220;-79
2021/10/19 05:10:35;;;;;;;3.88;3.58;;;8.80;99.90;;;;;;5103869;28;20658;-79
2021/10/19 05:13:02;;;;;;;4.00;3.70;;;8.80;99.90;;;;;;5106132;28;20607;-79
2021/10/19 05:15:29;;;;;;;4.25;3.88;;;8.90;99.90;;;;;;5108284;28;20221;-78
2021/10/19 05:17:56;;;;;;;4.20;3.90;;;8.80;99.90;;;;;;5104149;28;20217;-78
2021/10/19 05:20:24;;;;;;;3.42;3.22;;;8.80;99.90;;;;;;5098847;28;20242;-79
2021/10/19 05:22:52;;;;;;;3.83;3.53;;;8.80;99.90;;;;;;5105685;28;20224;-79
2021/10/19 05:25:19;;;;;;;4.00;3.70;;;8.90;99.90;;;;;;5105005;28;20688;-78
2021/10/19 05:27:46;;;;;;;3.50;3.20;;;8.90;99.90;;;;;;5106994;28;20220;-79
2021/10/19 05:30:14;;;;;;;3.97;3.67;;;8.90;99.90;;;;;;5106713;27;20217;-79
2021/10/19 05:32:41;;;;;;;4.10;3.70;;;8.80;99.90;;;;;;5105139;28;20251;-79
2021/10/19 05:35:09;;;;;;;3.50;3.30;;;8.90;99.90;;;;;;5106960;28;20212;-79
2021/10/19 05:37:36;;;;;;;3.67;3.47;;;8.80;99.90;;;;;;5104280;28;20217;-79
2021/10/19 05:40:05;;;;;;;3.70;3.40;;;8.80;99.90;;;;;;5107051;28;20252;-79
2021/10/19 05:42:32;;;;;;;3.58;3.28;;;8.80;99.90;;;;;;5108748;28;20224;-79
2021/10/19 05:44:59;;;;;;;4.10;3.80;;;8.80;99.90;;;;;;5107809;28;20224;-79
2021/10/19 05:47:26;;;;;;;4.35;3.85;;;8.80;99.90;;;;;;5105338;28;20750;-79
2021/10/19 05:49:53;;;;;;;4.15;3.80;;;8.80;99.90;;;;;;5106449;28;20228;-79
2021/10/19 05:52:20;;;;;;;3.97;3.67;;;8.80;99.90;;;;;;5105810;27;20317;-79
2021/10/19 05:54:48;;;;;;;4.40;3.97;;;8.80;99.90;;;;;;5105340;28;20734;-78
2021/10/19 05:57:16;;;;;;;4.38;3.97;;;8.80;99.90;;;;;;5104818;28;20221;-79
2021/10/19 05:59:43;;;;;;;3.92;3.63;;;8.90;99.90;;;;;;5107611;28;20285;-80
2021/10/19 06:02:10;;;;;;;4.05;3.75;;;8.90;99.90;;;;;;5105549;28;20224;-78
2021/10/19 06:04:37;;;;;;;4.07;3.78;;;8.90;99.90;;;;;;5106822;28;20225;-79
2021/10/19 06:07:04;;;;;;;4.38;4.07;;;8.90;99.90;;;;;;5103025;28;20216;-78
2021/10/19 06:09:31;;;;;;;4.10;3.70;;;8.90;99.90;;;;;;5106427;28;20910;-79
2021/10/19 06:12:00;;;;;;;3.65;3.40;;;9.00;99.90;;;;;;5104138;28;20262;-80
2021/10/19 06:14:29;;;;;;;4.25;3.95;;;9.00;99.90;;;;;;5104214;28;20289;-79
2021/10/19 06:16:56;;;;;;;3.53;3.22;;;9.10;99.90;;;;;;5102674;28;20288;-79
2021/10/19 06:19:23;;;;;;;3.85;3.50;;;9.10;99.90;;;;;;5102091;27;25306;-80
2021/10/19 06:21:50;;;;;;;4.05;3.75;;;9.10;99.90;;;;;;5105149;28;20235;-78
2021/10/19 06:24:18;;;;;;;4.10;3.80;;;9.20;99.90;;;;;;5105214;28;20758;-77
2021/10/19 06:26:45;;;;;;;3.50;3.20;;;9.20;99.90;;;;;;5107800;28;20247;-79
2021/10/19 06:29:14;;;;;;;3.90;3.60;;;9.30;99.90;;;;;;5100141;28;20224;-79
2021/10/19 06:31:43;;;;;;;3.83;3.53;;;9.30;99.90;;;;;;5106302;28;20632;-79
2021/10/19 06:34:10;;;;;;;4.15;3.75;;;9.30;99.90;;;;;;5111258;28;20722;-79
2021/10/19 06:36:38;;;;;;;3.70;3.40;;;9.20;99.90;;;;;;5108515;27;20216;-79
2021/10/19 06:39:05;;;;;;;3.78;3.47;;;9.20;99.90;;;;;;5110176;27;20213;-78
2021/10/19 06:41:33;;;;;;;5.57;3.45;;;9.20;99.90;;;;;;5103581;28;20220;-78
2021/10/19 06:44:01;;;;;;;3.40;3.10;;;9.20;99.90;;;;;;5106684;28;20223;-76
2021/10/19 06:46:28;;;;;;;3.58;3.30;;;9.20;99.90;;;;;;5105439;27;20274;-78
2021/10/19 06:48:56;;;;;;;3.97;3.67;;;9.30;99.90;;;;;;5109295;28;20217;-77
2021/10/19 06:51:23;;;;;;;3.95;3.65;;;9.20;99.90;;;;;;5106971;27;20232;-79
2021/10/19 06:53:50;;;;;;;4.15;3.80;;;9.20;99.90;;;;;;5103449;22;20279;-80
2021/10/19 06:56:18;;;;;;;4.97;4.07;;;9.20;99.90;;;;;;5060856;28;20709;-77
2021/10/19 06:58:45;;;;;;;4.05;3.63;;;9.30;99.90;;;;;;5057543;28;20245;-79
2021/10/19 07:01:15;;;;;;;4.43;4.05;;;9.30;99.90;;;;;;5055537;28;20233;-81
2021/10/19 07:03:43;;;;;;;4.50;4.10;;;9.30;99.90;;;;;;5052422;28;20226;-79
2021/10/19 07:06:12;;;;;;;5.43;3.83;;;9.30;99.90;;;;;;5052280;28;20222;-79
2021/10/19 07:08:39;;;;;;;4.68;4.10;;;9.40;99.90;;;;;;5056211;28;20229;-77
2021/10/19 07:11:06;;;;;;;3.55;3.35;;;9.40;99.90;;;;;;5052934;28;20245;-76
2021/10/19 07:13:33;;;;;;;3.72;3.42;;;9.50;99.90;;;;;;5049460;28;20229;-75
2021/10/19 07:16:02;;;;;;;3.50;3.20;;;9.50;99.90;;;;;;5052112;28;20222;-76
2021/10/19 07:18:29;;;;;;;3.67;3.28;;;9.50;99.90;;;;;;5042333;28;20605;-75
2021/10/19 07:20:56;;;;;;;3.38;3.08;;;9.60;99.90;;;;;;5052957;28;20226;-77
2021/10/19 07:23:24;;;;;;;3.72;3.42;;;9.70;99.90;;;;;;5051612;28;20225;-79
2021/10/19 07:25:52;;;;;;;3.25;2.92;;;9.80;99.90;;;;;;5056065;28;20218;-80
2021/10/19 07:28:19;;;;;;;3.38;3.08;;;9.80;99.90;;;;;;5053649;28;20218;-80
2021/10/19 07:30:46;;;;;;;3.90;3.60;;;9.80;99.90;;;;;;5058443;28;20716;-79
2021/10/19 07:33:13;;;;;;;4.00;3.50;;;9.80;99.90;;;;;;5054260;28;20224;-80
2021/10/19 07:35:40;;;;;;;4.13;3.75;;;9.90;99.90;;;;;;5062313;28;20768;-78
2021/10/19 07:38:08;;;;;;;4.45;4.05;;;9.90;99.90;;;;;;5053148;28;20248;-79
2021/10/19 07:40:36;;;;;;;4.25;3.85;;;9.90;99.90;;;;;;5050304;28;20314;-79
2021/10/19 07:43:03;;;;;;;4.60;4.20;;;9.90;99.90;;;;;;5054155;28;20762;-77
2021/10/19 07:45:31;;;;;;;4.30;3.85;;;9.90;99.90;;;;;;5056455;28;20223;-79
2021/10/19 07:48:00;;;;;;;4.63;3.92;;;10.00;99.90;;;;;;5054117;28;20279;-78
2021/10/19 07:50:29;;;;;;;4.38;4.07;;;10.00;99.90;;;;;;5052793;28;20222;-78
2021/10/19 07:52:56;;;;;;;5.10;4.63;;;10.00;99.90;;;;;;5052775;28;20230;-78
2021/10/19 07:55:24;;;;;;;4.30;3.90;;;10.10;99.90;;;;;;5046032;28;20266;-80
2021/10/19 07:57:53;;;;;;;6.20;4.43;;;10.20;99.90;;;;;;5054391;28;20296;-82
2021/10/19 08:00:24;;;;;;;4.63;4.10;;;10.30;99.90;;;;;;5054732;28;20226;-82
2021/10/19 08:02:52;;;;;;;4.88;4.32;;;10.40;99.90;;;;;;5056886;28;20813;-83
2021/10/19 08:05:19;;;;;;;6.22;4.53;;;10.70;99.90;;;;;;5051804;28;20461;-85
2021/10/19 08:07:48;;;;;;;4.32;3.92;;;10.90;99.90;;;;;;5057153;28;20274;-77
2021/10/19 08:10:18;;;;;;;4.15;3.75;;;11.10;99.90;;;;;;5058309;28;20983;-77
2021/10/19 08:12:45;;;;;;;4.00;3.70;;;11.20;99.90;;;;;;5060462;28;20244;-82
2021/10/19 08:15:15;;;;;;;3.92;3.63;;;11.30;99.90;;;;;;5055185;28;21194;-82
2021/10/19 08:17:42;;;;;;;4.38;4.07;;;11.30;99.90;;;;;;5054833;28;20226;-80
2021/10/19 08:20:10;;;;;;;5.75;4.22;;;11.30;99.90;;;;;;5061857;28;20234;-84
2021/10/19 08:22:38;;;;;;;5.13;4.60;;;11.30;99.90;;;;;;5054894;28;20241;-79
2021/10/19 08:25:07;;;;;;;4.47;4.07;;;11.30;99.90;;;;;;5061938;28;20229;-84
2021/10/19 08:27:35;;;;;;;5.13;4.57;;;11.30;99.90;;;;;;5057062;28;20230;-80
2021/10/19 08:30:02;;;;;;;4.03;3.72;;;11.40;99.90;;;;;;5061583;28;20272;-80
2021/10/19 08:32:30;;;;;;;4.97;4.50;;;11.50;99.90;;;;;;5058441;28;20354;-82
2021/10/19 08:34:57;;;;;;;5.95;5.35;;;11.50;99.90;;;;;;5061624;28;20233;-85
2021/10/19 08:37:24;;;;;;;5.10;4.60;;;11.60;99.90;;;;;;5059597;28;20307;-81
2021/10/19 08:39:51;;;;;;;4.75;4.13;;;11.60;99.90;;;;;;5053056;28;20257;-78
2021/10/19 08:42:19;;;;;;;5.03;4.53;;;11.70;99.90;;;;;;5061391;28;20223;-78
2021/10/19 08:44:46;;;;;;;5.38;4.88;;;11.70;99.90;;;;;;5052052;28;20708;-84
2021/10/19 08:47:13;;;;;;;4.95;4.38;;;11.70;99.90;;;;;;5049575;28;20346;-79
2021/10/19 08:49:42;;;;;;;4.97;4.47;;;11.80;99.90;;;;;;5056184;28;20252;-76
2021/10/19 08:52:10;;;;;;;5.07;4.50;;;11.90;99.90;;;;;;5063774;28;20226;-83
2021/10/19 08:54:37;;;;;;;5.97;4.80;;;12.00;99.90;;;;;;5053769;28;20226;-78
2021/10/19 08:57:13;;;;;;;8.88;5.15;;;12.10;99.90;;;;;;5053576;28;20226;-82
2021/10/19 08:59:44;;;;;;;5.70;4.43;;;12.20;99.90;;;;;;5055203;28;20217;-80
2021/10/19 09:02:11;;;;;;;4.68;4.07;;;12.40;99.90;;;;;;5060737;28;20279;-80
2021/10/19 09:04:39;;;;;;;5.97;4.63;;;12.50;99.90;;;;;;5058944;28;20279;-81
2021/10/19 09:07:08;;;;;;;5.25;4.72;;;12.50;99.90;;;;;;5060973;28;20700;-77
2021/10/19 09:09:36;;;;;;;6.47;4.70;;;12.40;99.90;;;;;;5057206;28;20229;-79
2021/10/19 09:12:04;;;;;;;5.30;4.68;;;12.30;99.90;;;;;;5057524;28;20314;-81
2021/10/19 09:14:33;;;;;;;5.60;5.10;;;12.20;99.90;;;;;;5061413;28;20218;-82
2021/10/19 09:17:01;;;;;;;5.15;4.47;;;12.20;99.90;;;;;;5055063;28;20214;-83
2021/10/19 09:19:29;;;;;;;5.90;4.65;;;12.30;99.90;;;;;;5058327;28;20586;-81
2021/10/19 09:22:01;;;;;;;5.60;5.10;;;12.40;99.90;;;;;;5052104;28;20229;-85
2021/10/19 09:24:31;;;;;;;5.15;4.65;;;12.50;99.90;;;;;;5058982;28;20650;-75
2021/10/19 09:27:01;;;;;;;5.88;4.53;;;12.70;99.90;;;;;;5052826;28;20309;-75
2021/10/19 09:29:29;;;;;;;5.18;4.65;;;12.90;99.90;;;;;;5057648;28;20493;-81
2021/10/19 09:31:58;;;;;;;4.90;4.32;;;13.20;99.90;;;;;;5053943;28;20245;-76
2021/10/19 09:34:29;;;;;;;4.97;4.57;;;13.30;99.90;;;;;;5057794;28;20221;-82
2021/10/19 09:36:56;;;;;;;5.05;4.38;;;13.40;99.90;;;;;;5054142;28;20523;-82
2021/10/19 09:39:48;;;;;;;5.28;4.30;;;13.30;99.90;;;;;;5056515;28;20234;-78
2021/10/19 09:42:20;;;;;;;4.85;4.43;;;13.20;99.90;;;;;;5054143;28;20218;-83
2021/10/19 09:44:52;;;;;;;5.32;4.82;;;13.20;99.90;;;;;;5058780;28;20284;-84
2021/10/19 09:47:20;;;;;;;4.80;4.28;;;13.20;99.90;;;;;;5056673;28;20218;-79
2021/10/19 09:49:48;;;;;;;6.60;4.47;;;13.20;99.90;;;;;;5061024;28;20648;-81
2021/10/19 09:52:15;;;;;;;4.05;3.75;;;13.00;99.90;;;;;;5055531;28;20236;-80
2021/10/19 09:54:43;;;;;;;4.40;4.00;;;12.90;99.90;;;;;;5060606;28;20222;-79
2021/10/19 09:57:12;;;;;;;5.15;4.50;;;12.80;99.90;;;;;;5058867;28;20237;-77
2021/10/19 09:59:41;;;;;;;5.00;4.60;;;12.80;99.90;;;;;;5051425;28;20524;-78
2021/10/19 10:02:12;;;;;;;5.18;4.68;;;12.70;99.90;;;;;;5059816;28;20225;-81
2021/10/19 10:04:39;;;;;;;4.13;3.83;;;12.70;99.90;;;;;;5052134;28;20234;-76
2021/10/19 10:07:07;;;;;;;4.55;4.15;;;12.70;99.90;;;;;;5057915;28;20279;-75
2021/10/19 10:09:36;;;;;;;4.57;4.18;;;12.80;99.90;;;;;;5056839;28;20214;-80
2021/10/19 10:12:06;;;;;;;5.75;4.53;;;12.90;99.90;;;;;;5053118;28;20904;-79
2021/10/19 10:14:42;;;;;;;5.53;4.90;;;13.00;99.90;;;;;;5057985;28;20400;-80
2021/10/19 10:17:11;;;;;;;4.60;4.20;;;12.90;99.90;;;;;;5063527;28;20439;-79
2021/10/19 10:19:38;;;;;;;5.35;4.85;;;12.80;99.90;;;;;;5056304;28;20308;-78
2021/10/19 10:22:16;;;;;;;5.78;4.80;;;12.70;99.90;;;;;;5055503;28;20214;-83
2021/10/19 10:24:43;;;;;;;5.00;4.50;;;12.70;99.90;;;;;;5060569;28;20739;-80
2021/10/19 10:27:13;;;;;;;7.07;4.65;;;12.80;99.90;;;;;;5053817;28;20653;-80
2021/10/19 10:29:44;;;;;;;4.90;4.50;;;12.90;99.90;;;;;;5060280;28;20425;-79
2021/10/19 10:32:22;;;;;;;4.47;4.07;;;13.00;99.90;;;;;;5058054;28;20213;-77
2021/10/19 10:35:00;;;;;;;4.47;4.07;;;13.10;99.90;;;;;;5053230;28;20507;-76
2021/10/19 10:37:36;;;;;;;4.80;4.40;;;13.20;99.90;;;;;;5055735;28;20246;-76
2021/10/19 10:40:05;;;;;;;4.72;4.32;;;13.40;99.90;;;;;;5057011;28;20214;-75
2021/10/19 10:42:36;;;;;;;6.10;4.28;;;13.50;99.90;;;;;;5056173;28;20641;-78
2021/10/19 10:45:15;;;;;;;5.10;4.40;;;13.60;99.90;;;;;;5053241;28;20230;-76
2021/10/19 10:47:46;;;;;;;4.93;4.43;;;13.70;99.90;;;;;;5055703;28;20810;-81
2021/10/19 10:50:13;;;;;;;5.15;4.70;;;13.90;99.90;;;;;;5055257;28;20735;-82
2021/10/19 10:52:40;;;;;;;4.70;4.30;;;14.00;99.90;;;;;;5052107;28;20226;-79
2021/10/19 10:55:13;;;;;;;5.78;4.65;;;14.20;99.90;;;;;;5054587;28;20221;-82
2021/10/19 10:57:45;;;;;;;5.32;4.80;;;14.20;99.90;;;;;;5055869;28;20295;-79
2021/10/19 11:00:14;;;;;;;4.82;4.32;;;14.20;99.90;;;;;;5055939;28;20237;-81
2021/10/19 11:02:42;;;;;;;5.32;4.60;;;14.00;99.90;;;;;;5054541;28;20307;-77
2021/10/19 11:05:15;;;;;;;4.90;4.40;;;14.00;99.90;;;;;;5055723;28;20272;-80
2021/10/19 11:07:44;;;;;;;4.45;4.05;;;13.90;99.90;;;;;;5052936;28;20848;-75
2021/10/19 11:10:13;;;;;;;4.63;4.22;;;13.90;99.90;;;;;;5055445;28;20222;-80
2021/10/19 11:12:41;;;;;;;4.43;4.07;;;14.00;99.90;;;;;;5052984;28;20238;-77
2021/10/19 11:15:14;;;;;;;4.82;4.20;;;14.10;99.90;;;;;;5058562;28;20709;-79
2021/10/19 11:17:49;;;;;;;4.43;3.92;;;14.10;99.90;;;;;;5053708;28;20603;-79
2021/10/19 11:20:16;;;;;;;4.75;3.88;;;14.00;99.90;;;;;;5058126;28;20214;-79
2021/10/19 11:22:43;;;;;;;4.60;4.20;;;14.00;99.90;;;;;;5056279;28;20221;-78
2021/10/19 11:25:12;;;;;;;4.70;4.20;;;13.90;99.90;;;;;;5053736;28;20229;-77
2021/10/19 11:27:40;;;;;;;5.20;4.28;;;13.90;99.90;;;;;;5054860;28;20230;-77
2021/10/19 11:30:09;;;;;;;4.40;4.10;;;13.90;99.90;;;;;;5059992;28;20287;-79
2021/10/19 11:32:38;;;;;;;4.68;4.28;;;13.80;99.90;;;;;;5053768;28;20229;-74
2021/10/19 11:35:08;;;;;;;4.35;3.95;;;13.70;99.90;;;;;;5054536;28;20217;-74
2021/10/19 11:37:38;;;;;;;4.68;4.05;;;13.70;99.90;;;;;;5053611;28;20222;-78
2021/10/19 11:40:07;;;;;;;7.40;4.70;;;13.80;99.90;;;;;;5055427;28;20287;-79
2021/10/19 11:42:46;;;;;;;4.45;4.05;;;13.80;99.90;;;;;;5056852;28;20226;-77
2021/10/19 11:45:14;;;;;;;5.18;4.03;;;13.70;99.90;;;;;;5053080;28;20313;-82
2021/10/19 11:47:50;;;;;;;4.57;4.18;;;13.60;99.90;;;;;;5052950;28;20630;-77
2021/10/19 11:50:19;;;;;;;4.82;4.38;;;13.60;99.90;;;;;;5050911;28;20214;-77
2021/10/19 11:52:48;;;;;;;4.70;4.13;;;13.60;99.90;;;;;;5055470;28;20892;-77
2021/10/19 11:55:17;;;;;;;4.97;4.47;;;13.60;99.90;;;;;;5061204;28;20633;-80
2021/10/19 11:57:49;;;;;;;4.55;4.15;;;13.70;99.90;;;;;;5053823;28;20723;-77
2021/10/19 12:00:17;;;;;;;4.30;3.92;;;13.80;99.90;;;;;;5053346;28;20303;-77
2021/10/19 12:02:54;;;;;;;6.35;5.18;;;13.80;99.90;;;;;;5057413;28;20725;-77
2021/10/19 12:05:23;;;;;;;5.15;4.65;;;13.80;99.90;;;;;;5055880;28;20218;-79
2021/10/19 12:07:53;;;;;;;4.45;4.05;;;13.90;99.90;;;;;;5057229;28;20535;-80
2021/10/19 12:10:22;;;;;;;5.00;4.47;;;13.90;99.90;;;;;;5050781;28;20214;-82
2021/10/19 12:13:03;;;;;;;7.85;4.38;;;14.00;99.90;;;;;;5055481;28;20237;-79
2021/10/19 12:15:32;;;;;;;4.40;4.00;;;14.00;99.90;;;;;;5049382;28;20540;-83
2021/10/19 12:18:02;;;;;;;5.15;4.65;;;14.20;99.90;;;;;;5065363;28;20288;-80
2021/10/19 12:20:31;;;;;;;5.93;5.15;;;14.30;99.90;;;;;;5067805;28;20228;-76
2021/10/19 12:23:04;;;;;;;5.03;4.53;;;14.40;99.90;;;;;;5060422;28;20490;-78
2021/10/19 12:25:37;;;;;;;5.35;4.22;;;14.50;99.90;;;;;;5056139;28;20312;-76
2021/10/19 12:28:05;;;;;;;4.78;4.38;;;14.60;99.90;;;;;;5049904;28;20272;-81
2021/10/19 12:30:40;;;;;;;5.05;4.55;;;14.70;99.90;;;;;;5057743;28;20494;-82
2021/10/19 12:33:19;;;;;;;4.40;4.00;;;14.80;99.90;;;;;;5051891;28;20229;-75
2021/10/19 12:35:54;;;;;;;5.15;4.45;;;15.00;99.90;;;;;;5058096;28;20699;-77
2021/10/19 12:38:27;;;;;;;7.38;4.10;;;15.10;99.90;;;;;;5050157;28;20271;-77
2021/10/19 12:40:55;;;;;;;5.28;4.78;;;15.30;99.90;;;;;;5055780;28;20268;-75
2021/10/19 12:43:22;;;;;;;4.38;3.92;;;15.50;99.90;;;;;;5055972;28;20218;-78
2021/10/19 12:45:49;;;;;;;5.13;4.45;;;15.60;99.90;;;;;;5061634;28;20222;-77
2021/10/19 12:48:17;;;;;;;5.13;4.55;;;15.60;99.90;;;;;;5058751;28;20785;-76
2021/10/19 12:50:44;;;;;;;5.80;4.70;;;15.50;99.90;;;;;;5056522;28;20225;-76
2021/10/19 12:53:11;;;;;;;4.97;4.35;;;15.40;99.90;;;;;;5053905;28;20234;-77
2021/10/19 12:55:38;;;;;;;4.15;3.75;;;15.40;99.90;;;;;;5065774;22;20566;-76
2021/10/19 12:58:05;;;;;;;4.05;3.70;;;15.30;99.90;;;;;;5052640;28;20229;-77